Skip Navigation LinksHome page > Weather > Current weather Skip Navigation Links

Current Weather

Indira Gandhi Intl Apt, New Delhi, India

For information only: do not use for flight planning or navigation.
Latest weather
Observation time Friday, March 6, 2015 9:00 AM IST
Local time Friday, March 6, 2015 9:26 AM IST
Flight conditions Instrument Meteorological Conditions
Winds
Wind direction East (100°)
Wind speed 5 mph
Visibility 1.9 mi.
Present weather smoke
Sky condition
Ceiling unlimited
Cloud layer few clouds 3,000 ft.
Cloud layer scattered clouds 10,000 ft.
Temperature 64°F
Dewpoint 57°F
Altimeter 30.06 in.Hg
Derived measurements
Relative humidity 77%
Density altitude 1179 ft.
Remarks
No significant changes expected in the next two hours.
METAR VIDP 060330Z 10004KT 3000 FU FEW030 SCT100 18/14 Q1018 NOSIG

Settings

Location code

InnerDrive.Weather 4.0.5505.0 Release CLR 4.0.30319.34014
Copyright ©2015 Inner Drive Technology. All rights reserved. Portions Copyright ©1986-2015 David Braverman.

Find weather

Site navigation


Skip Navigation Links

Place info

Page info

PayPal - The safer, easier way to pay online!

Return home.

Copyright ©2015 Inner Drive Technology. Purveyors of fine, hand-crafted computer software. Page printed 2015-03-06T03:56:20 UTC.